Time;durP1;ratioP1;P1;durP2;ratioP2;P2;SDS_P1;SDS_P2;PMS_P1;PMS_P2;Temp;Humidity;BMP_temperature;BMP_pressure;BME280_temperature;BME280_humidity;BME280_pressure;Samples;Min_cycle;Max_cycle;Signal;HPM_P1;HPM_P2
2023/07/17 00:01:28;;;;;;;6.90;3.22;;;17.20;99.90;;;;;;4974605;28;20125;-64
2023/07/17 00:03:53;;;;;;;6.35;3.50;;;17.20;99.90;;;;;;4975734;28;20048;-67
2023/07/17 00:06:19;;;;;;;5.07;3.35;;;17.10;99.90;;;;;;4962534;28;20053;-68
2023/07/17 00:08:44;;;;;;;6.38;3.70;;;17.10;99.90;;;;;;4972511;28;20406;-64
2023/07/17 00:11:10;;;;;;;7.78;4.10;;;17.00;99.90;;;;;;4973395;28;20050;-64
2023/07/17 00:13:35;;;;;;;5.93;3.70;;;17.00;99.90;;;;;;4981956;28;20041;-66
2023/07/17 00:16:01;;;;;;;7.38;3.40;;;17.00;99.90;;;;;;4988386;28;20042;-66
2023/07/17 00:18:30;;;;;;;7.78;3.50;;;17.00;99.90;;;;;;4976599;28;20117;-67
2023/07/17 00:20:56;;;;;;;7.53;3.17;;;17.00;99.90;;;;;;4961978;28;20914;-67
2023/07/17 00:23:22;;;;;;;8.35;3.38;;;17.10;99.90;;;;;;4987701;28;20038;-63
2023/07/17 00:25:47;;;;;;;7.03;3.45;;;17.10;99.90;;;;;;4966647;28;20023;-65
2023/07/17 00:28:13;;;;;;;5.85;3.53;;;17.10;99.90;;;;;;4963984;28;20042;-65
2023/07/17 00:30:38;;;;;;;6.50;3.60;;;17.20;99.90;;;;;;4947791;28;20050;-66
2023/07/17 00:33:04;;;;;;;6.55;3.25;;;17.20;99.90;;;;;;4972768;28;20124;-65
2023/07/17 00:35:30;;;;;;;6.10;3.33;;;17.20;99.90;;;;;;4983158;28;20489;-64
2023/07/17 00:37:55;;;;;;;7.82;3.38;;;17.20;99.90;;;;;;4972342;28;20167;-66
2023/07/17 00:40:21;;;;;;;6.68;3.50;;;17.20;99.90;;;;;;4973331;28;20042;-67
2023/07/17 00:42:47;;;;;;;6.13;3.50;;;17.20;99.90;;;;;;4955388;28;20085;-64
2023/07/17 00:45:12;;;;;;;7.32;3.20;;;17.20;99.90;;;;;;4979622;28;20583;-65
2023/07/17 00:47:38;;;;;;;6.20;3.53;;;17.20;99.90;;;;;;4995245;28;20046;-65
2023/07/17 00:50:04;;;;;;;13.88;3.47;;;17.20;99.90;;;;;;4977053;28;20042;-65
2023/07/17 00:52:30;;;;;;;4.75;3.20;;;17.20;99.90;;;;;;4973448;28;20050;-65
2023/07/17 00:54:56;;;;;;;9.88;3.38;;;17.20;99.90;;;;;;4975914;28;20098;-65
2023/07/17 00:57:23;;;;;;;6.10;3.40;;;17.20;99.90;;;;;;4962222;28;20056;-64
2023/07/17 00:59:50;;;;;;;6.25;3.60;;;17.10;99.90;;;;;;4969690;28;20043;-64
2023/07/17 01:02:16;;;;;;;6.18;3.30;;;17.10;99.90;;;;;;4963321;28;20137;-64
2023/07/17 01:04:46;;;;;;;7.35;3.30;;;17.10;99.90;;;;;;4971155;28;20126;-65
2023/07/17 01:07:11;;;;;;;4.38;3.03;;;17.10;99.90;;;;;;4966921;28;20104;-64
2023/07/17 01:09:37;;;;;;;5.40;3.15;;;17.10;99.90;;;;;;4973441;28;20576;-66
2023/07/17 01:12:03;;;;;;;5.80;3.20;;;17.10;99.90;;;;;;4991224;28;20506;-66
2023/07/17 01:14:29;;;;;;;7.35;3.42;;;17.10;99.90;;;;;;4979687;28;20039;-67
2023/07/17 01:16:54;;;;;;;6.85;3.58;;;17.10;99.90;;;;;;4968696;28;20125;-67
2023/07/17 01:19:20;;;;;;;7.03;3.65;;;17.10;99.90;;;;;;4978613;28;20042;-67
2023/07/17 01:21:53;;;;;;;7.93;3.60;;;17.10;99.90;;;;;;4982827;28;20026;-66
2023/07/17 01:24:19;;;;;;;9.98;3.90;;;17.00;99.90;;;;;;4972882;28;20062;-64
2023/07/17 01:26:45;;;;;;;7.95;3.70;;;17.00;99.90;;;;;;4958273;28;20047;-66
2023/07/17 01:29:10;;;;;;;6.63;3.55;;;16.90;99.90;;;;;;4975192;28;20046;-64
2023/07/17 01:31:38;;;;;;;7.25;3.35;;;16.90;99.90;;;;;;4975984;28;20043;-64
2023/07/17 01:34:04;;;;;;;6.97;3.40;;;16.80;99.90;;;;;;4975213;28;20144;-64
2023/07/17 01:36:30;;;;;;;6.68;3.33;;;16.80;99.90;;;;;;4989415;28;20061;-64
2023/07/17 01:38:55;;;;;;;9.15;3.17;;;16.70;99.90;;;;;;4983560;28;20568;-63
2023/07/17 01:41:23;;;;;;;5.97;3.00;;;16.60;99.90;;;;;;4958983;28;20493;-66
2023/07/17 01:43:49;;;;;;;7.15;2.90;;;16.60;99.90;;;;;;4988619;28;20376;-66
2023/07/17 01:46:14;;;;;;;5.45;3.15;;;16.50;99.90;;;;;;5007048;28;20502;-65
2023/07/17 01:48:40;;;;;;;7.15;3.28;;;16.60;99.90;;;;;;4968717;28;20520;-66
2023/07/17 01:51:06;;;;;;;8.63;3.58;;;16.50;99.90;;;;;;4967129;28;20042;-65
2023/07/17 01:53:33;;;;;;;8.00;3.13;;;16.50;99.90;;;;;;4971649;28;20510;-66
2023/07/17 01:55:59;;;;;;;6.72;3.40;;;16.40;99.90;;;;;;4978677;28;20042;-66
2023/07/17 01:58:25;;;;;;;7.43;3.35;;;16.40;99.90;;;;;;4975195;28;20057;-66
2023/07/17 02:00:55;;;;;;;6.82;3.58;;;16.30;99.90;;;;;;4962547;28;20110;-66
2023/07/17 02:03:20;;;;;;;7.13;3.55;;;16.20;99.90;;;;;;4997491;28;20046;-66
2023/07/17 02:05:46;;;;;;;7.40;3.85;;;16.20;99.90;;;;;;4975492;28;20045;-66
2023/07/17 02:08:12;;;;;;;6.25;3.63;;;16.20;99.90;;;;;;4972843;28;20045;-66
2023/07/17 02:10:42;;;;;;;8.98;3.72;;;16.10;99.90;;;;;;4975384;28;20516;-66
2023/07/17 02:13:08;;;;;;;10.07;3.65;;;16.10;99.90;;;;;;4973375;28;20045;-66
2023/07/17 02:15:33;;;;;;;7.32;3.42;;;16.10;99.90;;;;;;4974543;28;20038;-66
2023/07/17 02:17:59;;;;;;;10.55;3.92;;;16.10;99.90;;;;;;4975228;28;20049;-66
2023/07/17 02:20:24;;;;;;;6.85;3.75;;;16.00;99.90;;;;;;4977779;28;20049;-67
2023/07/17 02:22:50;;;;;;;6.10;3.67;;;16.00;99.90;;;;;;4982418;28;20093;-66
2023/07/17 02:25:17;;;;;;;7.28;3.67;;;16.00;99.90;;;;;;4974662;28;20039;-67
2023/07/17 02:27:42;;;;;;;5.15;3.17;;;16.00;99.90;;;;;;4975321;28;20081;-66
2023/07/17 02:30:08;;;;;;;9.90;3.53;;;16.00;99.90;;;;;;4958422;28;20073;-66
2023/07/17 02:32:34;;;;;;;8.43;3.95;;;16.00;99.90;;;;;;4974558;28;20034;-66
2023/07/17 02:35:00;;;;;;;7.63;4.20;;;16.00;99.90;;;;;;4974605;28;20038;-67
2023/07/17 02:37:26;;;;;;;9.18;3.53;;;15.80;99.90;;;;;;4971869;28;20089;-63
2023/07/17 02:39:52;;;;;;;8.00;3.70;;;15.80;99.90;;;;;;4949474;28;20051;-67
2023/07/17 02:42:18;;;;;;;7.57;3.33;;;15.70;99.90;;;;;;4966253;28;20940;-65
2023/07/17 02:44:44;;;;;;;9.98;3.70;;;15.60;99.90;;;;;;4970785;28;20652;-64
2023/07/17 02:47:10;;;;;;;8.05;3.70;;;15.50;99.90;;;;;;4973252;28;20046;-64
2023/07/17 02:49:37;;;;;;;11.23;4.07;;;15.50;99.90;;;;;;4975876;28;20048;-65
2023/07/17 02:52:04;;;;;;;9.45;3.72;;;15.40;99.90;;;;;;4973441;28;20490;-64
2023/07/17 02:54:30;;;;;;;8.27;3.67;;;15.40;99.90;;;;;;4969464;28;20105;-64
2023/07/17 02:56:55;;;;;;;10.13;4.18;;;15.30;99.90;;;;;;4969135;28;20034;-64
2023/07/17 02:59:21;;;;;;;6.93;3.85;;;15.20;99.90;;;;;;4974413;28;20035;-64
2023/07/17 03:01:48;;;;;;;6.45;4.05;;;15.20;99.90;;;;;;4953676;28;20706;-64
2023/07/17 03:04:14;;;;;;;7.95;4.15;;;15.10;99.90;;;;;;4966943;28;20051;-64
2023/07/17 03:06:39;;;;;;;7.18;4.00;;;15.20;99.90;;;;;;4949665;28;20122;-66
2023/07/17 03:09:05;;;;;;;7.70;4.05;;;15.10;99.90;;;;;;4976740;28;20034;-64
2023/07/17 03:11:31;;;;;;;10.77;4.00;;;15.10;99.90;;;;;;4983242;28;20042;-64
2023/07/17 03:13:57;;;;;;;10.25;4.30;;;15.20;99.90;;;;;;4987348;28;20035;-64
2023/07/17 03:16:23;;;;;;;13.35;4.70;;;15.10;99.90;;;;;;4986839;28;20034;-66
2023/07/17 03:18:48;;;;;;;8.18;3.85;;;15.10;99.90;;;;;;4971292;28;20038;-66
2023/07/17 03:21:14;;;;;;;9.98;4.25;;;15.00;99.90;;;;;;4980766;28;20134;-65
2023/07/17 03:23:39;;;;;;;8.38;3.83;;;14.90;99.90;;;;;;4988992;28;20050;-64
2023/07/17 03:26:05;;;;;;;9.95;4.35;;;14.90;99.90;;;;;;4980509;28;20041;-64
2023/07/17 03:28:31;;;;;;;7.75;4.20;;;14.90;99.90;;;;;;4982453;28;20038;-64
2023/07/17 03:30:56;;;;;;;7.78;4.90;;;14.80;99.90;;;;;;4981251;28;20061;-64
2023/07/17 03:33:22;;;;;;;7.88;4.13;;;14.80;99.90;;;;;;4973928;28;20043;-64
2023/07/17 03:35:47;;;;;;;7.20;4.50;;;14.80;99.90;;;;;;4986221;28;20041;-64
2023/07/17 03:38:13;;;;;;;9.23;4.57;;;14.80;99.90;;;;;;4968262;28;20094;-65
2023/07/17 03:40:38;;;;;;;8.25;4.53;;;14.70;99.90;;;;;;4966612;28;20512;-66
2023/07/17 03:43:04;;;;;;;10.57;4.95;;;14.70;99.90;;;;;;4974356;28;20042;-65
2023/07/17 03:45:30;;;;;;;8.90;4.75;;;14.70;99.90;;;;;;4978823;28;20468;-65
2023/07/17 03:47:55;;;;;;;9.45;4.75;;;14.70;99.90;;;;;;4972349;28;20034;-63
2023/07/17 03:50:21;;;;;;;8.15;4.47;;;14.70;99.90;;;;;;4999900;28;20451;-65
2023/07/17 03:52:46;;;;;;;8.82;4.57;;;14.60;99.90;;;;;;4982181;28;20038;-65
2023/07/17 03:55:12;;;;;;;10.13;4.80;;;14.60;99.90;;;;;;4972087;28;20056;-65
2023/07/17 03:57:38;;;;;;;9.40;4.38;;;14.60;99.90;;;;;;4970968;28;20031;-66
2023/07/17 04:00:06;;;;;;;10.77;5.15;;;14.60;99.90;;;;;;4972031;28;20512;-66
2023/07/17 04:02:32;;;;;;;9.60;4.53;;;14.60;99.90;;;;;;4984333;28;20031;-65
2023/07/17 04:04:58;;;;;;;12.77;5.18;;;14.60;99.90;;;;;;4973252;28;20445;-66
2023/07/17 04:07:23;;;;;;;9.98;4.80;;;14.60;99.90;;;;;;4972913;28;20121;-66
2023/07/17 04:09:49;;;;;;;10.90;4.80;;;14.60;99.90;;;;;;4970592;28;20103;-65
2023/07/17 04:12:14;;;;;;;12.15;5.03;;;14.60;99.90;;;;;;4968498;28;20061;-65
2023/07/17 04:14:40;;;;;;;9.07;4.20;;;14.60;99.90;;;;;;4968419;28;20043;-65
2023/07/17 04:17:05;;;;;;;10.02;4.32;;;14.60;99.90;;;;;;4975721;28;20074;-65
2023/07/17 04:19:31;;;;;;;8.45;4.43;;;14.70;99.90;;;;;;4985708;28;20053;-65
2023/07/17 04:21:57;;;;;;;8.98;4.68;;;14.70;99.90;;;;;;4978594;28;20401;-65
2023/07/17 04:24:23;;;;;;;9.82;4.50;;;14.70;99.90;;;;;;4947391;28;20049;-63
2023/07/17 04:26:50;;;;;;;9.15;4.43;;;14.70;99.90;;;;;;4985099;28;20041;-67
2023/07/17 04:29:16;;;;;;;8.57;4.75;;;14.80;99.90;;;;;;4972378;28;20077;-64
2023/07/17 04:31:42;;;;;;;9.90;5.22;;;14.80;99.90;;;;;;4972883;28;20042;-63
2023/07/17 04:34:08;;;;;;;10.10;4.65;;;14.80;99.90;;;;;;4970148;28;20046;-64
2023/07/17 04:36:33;;;;;;;9.20;4.90;;;14.90;99.90;;;;;;4972290;28;20066;-64
2023/07/17 04:39:00;;;;;;;8.23;4.20;;;15.00;99.90;;;;;;4978407;28;20457;-63
2023/07/17 04:41:25;;;;;;;9.70;4.43;;;15.00;99.90;;;;;;4972114;28;20097;-65
2023/07/17 04:43:51;;;;;;;7.97;4.57;;;15.10;99.90;;;;;;4983114;28;20034;-63
2023/07/17 04:46:17;;;;;;;9.85;4.90;;;15.20;99.90;;;;;;4975946;28;20042;-66
2023/07/17 04:48:42;;;;;;;13.45;4.80;;;15.20;99.90;;;;;;4997749;28;20598;-64
2023/07/17 04:51:08;;;;;;;10.25;5.25;;;15.30;99.90;;;;;;4968220;28;20715;-67
2023/07/17 04:53:34;;;;;;;7.40;4.32;;;15.30;99.90;;;;;;4966788;28;20045;-65
2023/07/17 04:55:59;;;;;;;9.68;4.53;;;15.30;99.90;;;;;;4963104;28;20038;-67
2023/07/17 04:58:27;;;;;;;9.65;4.93;;;15.30;99.90;;;;;;4970400;28;20058;-64
2023/07/17 05:01:01;;;;;;;9.23;4.57;;;15.40;99.90;;;;;;4983542;28;20599;-64
2023/07/17 05:03:27;;;;;;;9.85;4.85;;;15.50;99.90;;;;;;4993518;28;20043;-64
2023/07/17 05:05:54;;;;;;;11.30;4.72;;;15.50;99.90;;;;;;4977682;28;20041;-64
2023/07/17 05:08:20;;;;;;;9.98;4.90;;;15.60;99.90;;;;;;4959624;28;20122;-64
2023/07/17 05:10:53;;;;;;;8.88;4.68;;;15.60;99.90;;;;;;4968663;28;20046;-67
2023/07/17 05:13:19;;;;;;;11.02;4.70;;;15.60;99.90;;;;;;4963534;28;20046;-67
2023/07/17 05:15:45;;;;;;;11.15;4.90;;;15.60;99.90;;;;;;4975203;28;20046;-64
2023/07/17 05:18:10;;;;;;;10.52;4.68;;;15.70;99.90;;;;;;4971056;28;20416;-64
2023/07/17 05:20:36;;;;;;;13.98;4.68;;;15.80;99.90;;;;;;4963871;28;20100;-64
2023/07/17 05:23:02;;;;;;;10.25;4.55;;;15.80;99.90;;;;;;4964349;28;20027;-67
2023/07/17 05:25:28;;;;;;;9.95;4.00;;;15.90;99.90;;;;;;4962030;28;20505;-64
2023/07/17 05:27:53;;;;;;;9.13;4.05;;;15.90;99.90;;;;;;4963230;28;20031;-64
2023/07/17 05:30:19;;;;;;;10.05;4.55;;;16.00;99.90;;;;;;4963353;28;20406;-64
2023/07/17 05:32:44;;;;;;;13.85;4.85;;;16.00;99.90;;;;;;4961619;28;20070;-64
2023/07/17 05:35:10;;;;;;;11.23;4.43;;;16.10;99.90;;;;;;4964386;28;20043;-64
2023/07/17 05:37:35;;;;;;;11.73;4.40;;;16.10;99.90;;;;;;4962620;28;20046;-64
2023/07/17 05:40:02;;;;;;;13.55;4.32;;;16.20;99.90;;;;;;4972813;28;20043;-66
2023/07/17 05:42:28;;;;;;;9.90;4.38;;;16.20;99.90;;;;;;4976355;28;20046;-64
2023/07/17 05:44:54;;;;;;;10.10;3.92;;;16.20;99.90;;;;;;4978709;28;20034;-64
2023/07/17 05:47:19;;;;;;;10.70;4.85;;;16.30;99.90;;;;;;4971106;28;20057;-65
2023/07/17 05:49:45;;;;;;;11.45;4.78;;;16.40;99.90;;;;;;4976897;28;20042;-64
2023/07/17 05:52:10;;;;;;;13.07;5.03;;;16.40;99.90;;;;;;4981602;28;20039;-63
2023/07/17 05:54:36;;;;;;;12.63;4.63;;;16.50;99.90;;;;;;4971598;28;20053;-63
2023/07/17 05:57:02;;;;;;;10.13;4.45;;;16.50;99.90;;;;;;4971582;28;20042;-65
2023/07/17 05:59:27;;;;;;;12.18;4.93;;;16.50;99.90;;;;;;4985960;28;20042;-63
2023/07/17 06:01:53;;;;;;;13.18;4.85;;;16.60;99.90;;;;;;4971673;28;20027;-63
2023/07/17 06:04:18;;;;;;;8.63;4.57;;;16.70;99.90;;;;;;4977338;28;20034;-63
2023/07/17 06:06:44;;;;;;;12.93;4.68;;;16.70;99.90;;;;;;4988158;28;20039;-64
2023/07/17 06:09:10;;;;;;;11.35;4.95;;;16.70;99.90;;;;;;4974430;28;20097;-63
2023/07/17 06:11:36;;;;;;;10.60;5.10;;;16.80;99.90;;;;;;4975173;28;20645;-63
2023/07/17 06:14:02;;;;;;;16.98;5.38;;;16.80;99.90;;;;;;4977904;28;20125;-63
2023/07/17 06:16:27;;;;;;;12.30;4.97;;;16.90;99.90;;;;;;4986848;28;20046;-63
2023/07/17 06:18:53;;;;;;;11.23;4.97;;;16.90;99.90;;;;;;4994514;28;20045;-64
2023/07/17 06:21:19;;;;;;;14.05;5.18;;;16.80;99.90;;;;;;4994928;28;20117;-64
2023/07/17 06:23:44;;;;;;;12.00;5.20;;;17.00;99.90;;;;;;4983977;28;20034;-63
2023/07/17 06:26:10;;;;;;;15.85;5.72;;;17.00;99.90;;;;;;4975025;28;20522;-63
2023/07/17 06:28:35;;;;;;;11.30;4.93;;;17.10;99.90;;;;;;4974684;28;20085;-63
2023/07/17 06:31:01;;;;;;;18.27;5.68;;;17.10;99.90;;;;;;4976943;28;20090;-64
2023/07/17 06:33:27;;;;;;;11.05;5.45;;;17.10;99.90;;;;;;4977913;28;20413;-64
2023/07/17 06:35:52;;;;;;;14.30;5.30;;;17.20;99.90;;;;;;4979273;28;20043;-64
2023/07/17 06:38:18;;;;;;;14.73;5.68;;;17.20;99.90;;;;;;4975070;28;20039;-63
2023/07/17 06:40:44;;;;;;;12.45;5.55;;;17.40;99.90;;;;;;4976900;28;20081;-64
2023/07/17 06:43:09;;;;;;;14.18;5.90;;;17.50;99.90;;;;;;4980231;28;20074;-64
2023/07/17 06:45:35;;;;;;;15.25;5.75;;;17.60;99.90;;;;;;4974680;28;20031;-63
2023/07/17 06:48:01;;;;;;;14.88;5.97;;;17.40;99.90;;;;;;4977950;28;20030;-64
2023/07/17 06:50:26;;;;;;;15.45;5.70;;;17.50;99.90;;;;;;4957124;28;20083;-63
2023/07/17 06:52:52;;;;;;;13.75;5.50;;;17.60;99.90;;;;;;4974857;28;20490;-64
2023/07/17 06:55:17;;;;;;;16.55;5.78;;;17.70;99.90;;;;;;4979733;28;20125;-63
2023/07/17 06:57:43;;;;;;;16.00;6.38;;;17.70;99.90;;;;;;4976998;28;20045;-63
2023/07/17 07:00:09;;;;;;;12.02;5.78;;;17.80;99.90;;;;;;4974284;28;20038;-63
2023/07/17 07:02:35;;;;;;;14.52;5.70;;;17.90;99.90;;;;;;4980512;28;20038;-64
2023/07/17 07:05:01;;;;;;;14.20;5.03;;;17.90;99.90;;;;;;4979905;28;20035;-63
2023/07/17 07:07:27;;;;;;;14.77;5.65;;;17.90;99.90;;;;;;4973679;28;20035;-65
2023/07/17 07:09:52;;;;;;;13.77;5.93;;;18.00;99.90;;;;;;4974757;28;20071;-63
2023/07/17 07:12:18;;;;;;;13.45;5.53;;;18.10;99.90;;;;;;4971858;28;20049;-64
2023/07/17 07:14:44;;;;;;;18.65;6.45;;;18.00;99.90;;;;;;4974675;28;20553;-64
2023/07/17 07:17:09;;;;;;;12.48;5.82;;;18.10;99.90;;;;;;4974344;28;20038;-64
2023/07/17 07:19:35;;;;;;;14.27;6.38;;;18.10;99.90;;;;;;4974227;28;20043;-63
2023/07/17 07:22:01;;;;;;;14.65;6.57;;;18.10;99.90;;;;;;4977012;28;20560;-63
2023/07/17 07:24:26;;;;;;;13.70;5.50;;;18.00;99.90;;;;;;4976527;28;20033;-64
2023/07/17 07:26:52;;;;;;;10.98;5.70;;;18.00;99.90;;;;;;4983874;28;20031;-63
2023/07/17 07:29:18;;;;;;;12.90;5.57;;;18.10;99.90;;;;;;4980083;28;20070;-63
2023/07/17 07:31:43;;;;;;;14.25;6.03;;;18.10;99.90;;;;;;4973617;28;20043;-64
2023/07/17 07:34:09;;;;;;;18.33;6.25;;;18.30;99.90;;;;;;4974206;28;20041;-64
2023/07/17 07:36:35;;;;;;;11.77;5.68;;;18.50;99.90;;;;;;4980086;28;20073;-64
2023/07/17 07:39:00;;;;;;;13.73;5.80;;;18.60;99.90;;;;;;4978222;28;20085;-63
2023/07/17 07:41:26;;;;;;;12.48;5.40;;;18.50;99.90;;;;;;4973469;28;20047;-63
2023/07/17 07:43:51;;;;;;;16.92;5.68;;;18.50;99.90;;;;;;4973698;28;20039;-64
2023/07/17 07:46:17;;;;;;;20.10;6.93;;;18.40;99.90;;;;;;4978225;28;20112;-65
2023/07/17 07:48:43;;;;;;;14.85;6.07;;;18.40;99.90;;;;;;4973193;28;20035;-64
2023/07/17 07:51:08;;;;;;;11.10;5.28;;;18.60;99.90;;;;;;4973759;28;20108;-64
2023/07/17 07:53:34;;;;;;;17.48;5.53;;;18.70;99.90;;;;;;4969244;28;28505;-63
2023/07/17 07:56:00;;;;;;;10.80;5.22;;;18.70;99.90;;;;;;4977220;28;20077;-64
2023/07/17 07:58:26;;;;;;;11.23;5.53;;;18.60;99.90;;;;;;4970690;28;20074;-64
2023/07/17 08:00:53;;;;;;;13.80;5.57;;;18.70;99.90;;;;;;4977145;28;20476;-63
2023/07/17 08:03:18;;;;;;;12.73;5.40;;;18.90;99.90;;;;;;4971155;28;20036;-64
2023/07/17 08:05:44;;;;;;;13.95;5.43;;;18.80;99.90;;;;;;4980708;28;20102;-64
2023/07/17 08:08:10;;;;;;;12.90;5.10;;;18.70;99.90;;;;;;4972859;28;20039;-64
2023/07/17 08:10:38;;;;;;;13.68;5.38;;;18.80;99.90;;;;;;4972979;28;20046;-64
2023/07/17 08:13:04;;;;;;;10.65;4.68;;;18.90;99.90;;;;;;4973587;28;20504;-64
2023/07/17 08:15:30;;;;;;;14.70;5.18;;;19.00;99.90;;;;;;4972717;28;20038;-64
2023/07/17 08:17:56;;;;;;;12.35;5.57;;;19.00;99.90;;;;;;4976287;28;20489;-63
2023/07/17 08:20:21;;;;;;;11.95;5.75;;;19.10;99.90;;;;;;4971309;28;20781;-64
2023/07/17 08:22:50;;;;;;;13.48;5.03;;;19.10;99.90;;;;;;4974175;28;20058;-64
2023/07/17 08:25:15;;;;;;;12.13;5.03;;;19.10;99.90;;;;;;4976248;28;20374;-63
2023/07/17 08:27:41;;;;;;;12.02;4.82;;;19.10;99.90;;;;;;4967921;28;20050;-64
2023/07/17 08:30:07;;;;;;;14.40;5.22;;;19.20;99.90;;;;;;4972599;28;20047;-64
2023/07/17 08:32:33;;;;;;;11.43;5.18;;;19.10;99.90;;;;;;4972005;28;20441;-64
2023/07/17 08:34:58;;;;;;;17.17;5.70;;;19.10;99.90;;;;;;4973195;28;20046;-64
2023/07/17 08:37:24;;;;;;;14.20;5.95;;;19.10;99.90;;;;;;4972353;28;20042;-63
2023/07/17 08:39:49;;;;;;;12.43;5.40;;;19.30;99.90;;;;;;4973869;28;20037;-65
2023/07/17 08:42:15;;;;;;;9.93;5.00;;;19.20;99.90;;;;;;4977977;28;20169;-64
2023/07/17 08:44:40;;;;;;;13.40;5.10;;;19.10;99.90;;;;;;4984393;28;20047;-64
2023/07/17 08:47:08;;;;;;;10.73;4.55;;;18.90;99.90;;;;;;4971441;28;20046;-63
2023/07/17 08:49:35;;;;;;;10.57;4.80;;;18.90;99.90;;;;;;4970591;28;20047;-65
2023/07/17 08:52:03;;;;;;;13.32;5.15;;;18.90;99.90;;;;;;4971840;28;20043;-64
2023/07/17 08:54:29;;;;;;;12.43;4.72;;;19.00;99.90;;;;;;4969103;28;20705;-63
2023/07/17 08:57:03;;;;;;;12.70;5.30;;;19.10;99.90;;;;;;4970930;28;20031;-64
2023/07/17 08:59:30;;;;;;;12.90;5.55;;;19.20;99.90;;;;;;4971707;28;20046;-64
2023/07/17 09:01:56;;;;;;;9.85;4.80;;;19.30;99.90;;;;;;4974642;28;20082;-64
2023/07/17 09:04:22;;;;;;;9.57;5.00;;;19.40;99.90;;;;;;4969575;28;20470;-64
2023/07/17 09:09:28;;;;;;;8.07;4.85;;;19.80;99.90;;;;;;5040841;22;20053;-69
2023/07/17 09:12:16;;;;;;;11.25;5.07;;;19.90;99.90;;;;;;5018741;28;20033;-69
2023/07/17 09:14:41;;;;;;;11.65;5.03;;;20.00;99.90;;;;;;5018943;28;20041;-69
2023/07/17 09:17:08;;;;;;;12.80;5.43;;;20.10;99.90;;;;;;4998492;28;20084;-67
2023/07/17 09:22:09;;;;;;;12.00;5.47;;;20.40;99.90;;;;;;4981672;28;20046;-69
2023/07/17 09:24:36;;;;;;;12.45;4.97;;;20.00;99.90;;;;;;4966371;28;20041;-68
2023/07/17 09:27:09;;;;;;;7.22;3.03;;;19.50;99.90;;;;;;4984533;28;20109;-69
2023/07/17 09:29:40;;;;;;;8.38;3.28;;;18.70;99.90;;;;;;4963986;28;20042;-69
2023/07/17 09:32:18;;;;;;;6.38;3.67;;;18.20;99.90;;;;;;4988325;28;20057;-68
2023/07/17 09:34:49;;;;;;;9.27;3.70;;;18.00;99.90;;;;;;5157811;23;20017;-69
2023/07/17 09:37:14;;;;;;;9.15;4.10;;;17.90;99.90;;;;;;4966292;28;20120;-69
2023/07/17 09:39:40;;;;;;;6.65;3.90;;;18.00;99.90;;;;;;4974006;28;20508;-69
2023/07/17 09:42:23;;;;;;;11.73;4.60;;;18.10;99.90;;;;;;4971536;28;20081;-69
2023/07/17 09:44:50;;;;;;;10.93;4.93;;;18.10;99.90;;;;;;4977528;28;20046;-69
2023/07/17 09:47:16;;;;;;;13.65;4.60;;;18.10;99.90;;;;;;5315580;22;20049;-65
2023/07/17 09:49:42;;;;;;;13.35;4.70;;;18.30;99.90;;;;;;5034977;28;20396;-69
2023/07/17 09:52:08;;;;;;;11.95;4.88;;;18.50;99.90;;;;;;4996654;28;20038;-69
2023/07/17 09:54:36;;;;;;;9.65;4.45;;;18.60;99.90;;;;;;5011996;28;20042;-68
2023/07/17 09:57:04;;;;;;;11.15;4.82;;;18.60;99.90;;;;;;5011136;28;20045;-68
2023/07/17 09:59:33;;;;;;;11.10;4.85;;;18.60;99.90;;;;;;4996050;28;20045;-69
2023/07/17 10:02:00;;;;;;;12.93;4.90;;;18.60;99.90;;;;;;4994055;28;20117;-69
2023/07/17 10:04:33;;;;;;;13.57;4.88;;;18.80;99.90;;;;;;4997450;28;20149;-69
2023/07/17 10:07:01;;;;;;;9.63;4.43;;;18.90;99.90;;;;;;5003087;28;20117;-70
2023/07/17 10:09:29;;;;;;;10.82;4.57;;;19.30;99.90;;;;;;4977202;28;20050;-69
2023/07/17 10:11:55;;;;;;;10.38;4.30;;;19.60;99.90;;;;;;4994305;28;20038;-69
2023/07/17 10:17:32;;;;;;;9.10;3.92;;;20.40;99.90;;;;;;5014533;28;20073;-69
2023/07/17 10:22:51;;;;;;;9.30;3.95;;;20.90;99.90;;;;;;5044855;22;20057;-68
2023/07/17 10:25:17;;;;;;;8.70;4.03;;;21.10;99.90;;;;;;4953358;28;20046;-68
2023/07/17 10:28:24;;;;;;;11.90;4.43;;;21.10;99.90;;;;;;4967645;28;20061;-69
2023/07/17 10:30:53;;;;;;;12.00;4.47;;;20.70;99.90;;;;;;4961315;28;20065;-68
2023/07/17 10:33:49;;;;;;;8.82;3.80;;;20.20;99.90;;;;;;4973490;28;20086;-69
2023/07/17 10:40:07;;;;;;;6.93;3.67;;;20.40;99.90;;;;;;5001632;28;20042;-68
2023/07/17 10:42:33;;;;;;;6.72;3.40;;;20.70;99.90;;;;;;4959096;28;20622;-69
2023/07/17 10:45:11;;;;;;;7.70;3.10;;;20.80;99.90;;;;;;4978242;28;20480;-69
2023/07/17 10:47:37;;;;;;;10.55;3.78;;;21.10;99.90;;;;;;4942919;28;20043;-68
2023/07/17 10:50:06;;;;;;;9.70;3.60;;;21.10;99.90;;;;;;4965770;28;20050;-69
2023/07/17 10:52:33;;;;;;;8.70;3.13;;;21.30;99.90;;;;;;4952403;28;20421;-69
2023/07/17 10:55:04;;;;;;;10.20;3.58;;;21.40;99.90;;;;;;4947853;28;20051;-69
2023/07/17 10:57:30;;;;;;;6.07;2.80;;;21.40;99.90;;;;;;4956610;28;20540;-69
2023/07/17 10:59:56;;;;;;;5.30;2.90;;;21.30;99.60;;;;;;4957970;28;20041;-69
2023/07/17 11:02:26;;;;;;;8.65;3.40;;;21.10;99.40;;;;;;4950680;28;20034;-69
2023/07/17 11:04:57;;;;;;;7.88;3.08;;;20.90;98.50;;;;;;4945553;28;20046;-69
2023/07/17 11:07:23;;;;;;;6.95;2.83;;;20.90;99.00;;;;;;4949442;28;20039;-69
2023/07/17 11:09:49;;;;;;;9.27;3.17;;;21.10;99.40;;;;;;4950328;28;20043;-69
2023/07/17 11:12:16;;;;;;;12.52;2.85;;;21.40;99.40;;;;;;4964135;28;20035;-69
2023/07/17 11:14:42;;;;;;;9.50;3.03;;;21.60;98.30;;;;;;4963035;28;20043;-68
2023/07/17 11:17:10;;;;;;;8.10;3.17;;;21.70;98.50;;;;;;4947736;28;20406;-69
2023/07/17 11:19:36;;;;;;;10.88;3.17;;;21.90;99.10;;;;;;4948027;28;20051;-68
2023/07/17 11:22:02;;;;;;;9.20;3.20;;;22.10;98.90;;;;;;4965736;28;20057;-69
2023/07/17 11:24:27;;;;;;;6.57;2.90;;;22.10;99.70;;;;;;4951056;28;20396;-69
2023/07/17 11:26:53;;;;;;;7.50;3.08;;;21.90;99.20;;;;;;4947658;28;20142;-69
2023/07/17 11:29:20;;;;;;;6.00;2.80;;;21.30;98.20;;;;;;4942246;28;20069;-69
2023/07/17 11:31:45;;;;;;;9.45;3.20;;;21.10;98.60;;;;;;4947376;28;20039;-69
2023/07/17 11:34:11;;;;;;;6.30;3.10;;;20.90;98.80;;;;;;4957755;28;20109;-70
2023/07/17 11:36:40;;;;;;;6.10;2.90;;;20.80;99.20;;;;;;4972706;28;20085;-69
2023/07/17 11:42:57;;;;;;;;;;;20.90;99.20;;;;;;5068128;22;20066;-69
2023/07/17 11:45:24;;;;;;;6.18;2.55;;;20.70;98.40;;;;;;4956406;28;19930;-69
2023/07/17 11:47:55;;;;;;;8.27;3.22;;;20.70;98.90;;;;;;4962399;28;20042;-69
2023/07/17 11:50:26;;;;;;;8.98;3.55;;;20.90;99.30;;;;;;4962161;28;20051;-67
2023/07/17 11:53:05;;;;;;;6.80;2.53;;;21.00;98.80;;;;;;4966022;28;20378;-69
2023/07/17 12:02:54;;;;;;;;;;;21.10;97.40;;;;;;5109216;23;20116;-68
2023/07/17 12:05:19;;;;;;;5.25;2.40;;;21.20;97.50;;;;;;4979553;28;19925;-69
2023/07/17 12:07:45;;;;;;;3.47;2.28;;;21.40;98.00;;;;;;4960973;28;20097;-69
2023/07/17 12:10:11;;;;;;;4.18;2.25;;;21.40;97.90;;;;;;4956329;28;20038;-69
2023/07/17 12:12:36;;;;;;;4.13;2.30;;;21.30;98.20;;;;;;4958296;28;20049;-69
2023/07/17 12:15:02;;;;;;;5.53;2.63;;;21.10;97.80;;;;;;4965884;28;20465;-69
2023/07/17 12:17:28;;;;;;;5.55;2.38;;;20.80;97.90;;;;;;4968417;28;20053;-68
2023/07/17 12:19:54;;;;;;;7.05;2.65;;;20.50;98.30;;;;;;4980079;28;20117;-69
2023/07/17 12:22:20;;;;;;;6.53;2.78;;;20.20;98.50;;;;;;5040798;22;20064;-69
2023/07/17 12:24:45;;;;;;;5.63;3.00;;;19.90;99.00;;;;;;4989584;28;20050;-69
2023/07/17 12:27:11;;;;;;;4.60;2.67;;;19.20;99.90;;;;;;4968580;28;20074;-69
2023/07/17 12:29:36;;;;;;;10.50;3.15;;;18.70;99.90;;;;;;4992133;28;20049;-69
2023/07/17 12:32:02;;;;;;;6.45;3.03;;;18.40;99.90;;;;;;4959925;28;20113;-69
2023/07/17 12:34:28;;;;;;;6.47;3.10;;;18.30;99.90;;;;;;4971229;28;20073;-68
2023/07/17 12:39:28;;;;;;;6.22;3.05;;;18.60;99.90;;;;;;5105312;22;20280;-69
2023/07/17 12:41:54;;;;;;;10.07;2.90;;;18.80;99.90;;;;;;4966100;28;20104;-69
2023/07/17 12:44:20;;;;;;;6.15;2.83;;;18.90;99.90;;;;;;4974913;28;20404;-69
2023/07/17 12:46:45;;;;;;;6.22;2.35;;;18.80;99.90;;;;;;4970111;28;20096;-69
2023/07/17 12:49:12;;;;;;;4.68;2.42;;;18.80;99.90;;;;;;4967054;28;20046;-69
2023/07/17 12:51:37;;;;;;;5.18;2.30;;;18.80;99.90;;;;;;4967559;28;20053;-68
2023/07/17 12:54:03;;;;;;;6.40;2.30;;;18.70;99.90;;;;;;4961400;28;20038;-68
2023/07/17 12:56:29;;;;;;;5.72;2.22;;;18.70;99.90;;;;;;4940959;28;20043;-68
2023/07/17 12:58:55;;;;;;;5.10;2.13;;;18.70;99.90;;;;;;4981670;28;20035;-69
2023/07/17 13:01:20;;;;;;;3.95;1.80;;;18.80;99.90;;;;;;4959017;28;20042;-68
2023/07/17 13:03:46;;;;;;;4.93;1.73;;;18.90;99.90;;;;;;4972150;28;20042;-69
2023/07/17 13:06:12;;;;;;;5.40;2.13;;;18.90;99.90;;;;;;4981871;23;20050;-69
2023/07/17 13:08:37;;;;;;;4.20;2.38;;;18.90;99.90;;;;;;4959360;28;20136;-70